createdAt,value
2023-04-19T00:00:12.913Z,43.38
2023-04-19T00:02:42.855Z,44.32
2023-04-19T00:05:12.067Z,42.47
2023-04-19T00:07:39.593Z,42.95
2023-04-19T00:10:07.927Z,42.23
2023-04-19T00:12:35.266Z,43.90
2023-04-19T00:15:02.640Z,42.69
2023-04-19T00:17:30.702Z,42.71
2023-04-19T00:19:58.296Z,43.99
2023-04-19T00:22:26.279Z,43.92
2023-04-19T00:24:54.173Z,44.42
2023-04-19T00:27:21.667Z,43.40
2023-04-19T00:29:49.193Z,42.81
2023-04-19T00:32:16.907Z,44.16
2023-04-19T00:34:44.331Z,44.14
2023-04-19T00:37:11.829Z,42.93
2023-04-19T00:39:40.351Z,44.82
2023-04-19T00:42:07.834Z,44.31
2023-04-19T00:44:35.328Z,44.11
2023-04-19T00:47:03.198Z,42.25
2023-04-19T00:49:30.957Z,41.50
2023-04-19T00:51:58.420Z,41.94
2023-04-19T00:54:26.723Z,42.15
2023-04-19T00:56:54.114Z,43.07
2023-04-19T00:59:21.550Z,42.84
2023-04-19T01:01:49.290Z,42.90
2023-04-19T01:04:17.359Z,43.34
2023-04-19T01:06:47.286Z,44.77
2023-04-19T01:09:15.058Z,44.63
2023-04-19T01:11:43.334Z,45.41
2023-04-19T01:14:11.095Z,47.47
2023-04-19T01:16:39.340Z,50.60
2023-04-19T01:19:06.805Z,47.92
2023-04-19T01:21:38.329Z,47.19
2023-04-19T01:24:06.611Z,47.49
2023-04-19T01:26:33.893Z,47.61
2023-04-19T01:29:02.952Z,47.31
2023-04-19T01:31:30.490Z,53.00
2023-04-19T01:33:57.733Z,53.83
2023-04-19T01:36:24.908Z,57.09
2023-04-19T01:38:52.395Z,58.22
2023-04-19T01:41:20.590Z,56.01
2023-04-19T01:43:47.812Z,55.91
2023-04-19T01:46:15.277Z,58.09
2023-04-19T01:48:42.494Z,58.41
2023-04-19T01:51:09.660Z,56.45
2023-04-19T01:53:37.164Z,55.80
2023-04-19T01:56:04.388Z,58.47
2023-04-19T01:58:31.552Z,58.48
2023-04-19T02:00:59.210Z,56.82
2023-04-19T02:03:26.924Z,55.12
2023-04-19T02:05:54.261Z,56.97
2023-04-19T02:08:22.303Z,55.59
2023-04-19T02:10:49.731Z,54.62
2023-04-19T02:13:17.524Z,56.09
2023-04-19T02:15:44.767Z,55.09
2023-04-19T02:18:13.584Z,54.56
2023-04-19T02:20:40.797Z,55.12
2023-04-19T02:23:07.934Z,56.09
2023-04-19T02:25:35.421Z,56.29
2023-04-19T02:28:02.907Z,55.77
2023-04-19T02:30:30.303Z,56.27
2023-04-19T02:32:58.771Z,57.45
2023-04-19T02:35:26.297Z,56.93
2023-04-19T02:37:53.468Z,57.02
2023-04-19T02:40:22.877Z,57.76
2023-04-19T02:42:51.209Z,57.64
2023-04-19T02:45:18.346Z,58.65
2023-04-19T02:47:46.967Z,58.43
2023-04-19T02:50:15.296Z,58.72
2023-04-19T02:52:42.840Z,58.22
2023-04-19T02:55:10.052Z,59.98
2023-04-19T02:57:37.791Z,60.66
2023-04-19T03:00:05.891Z,62.14
2023-04-19T03:02:33.461Z,62.06
2023-04-19T03:05:01.286Z,60.25
2023-04-19T03:07:28.457Z,58.75
2023-04-19T03:09:55.634Z,60.05
2023-04-19T03:12:23.116Z,61.45
2023-04-19T03:14:50.323Z,61.92
2023-04-19T03:17:17.552Z,60.98
2023-04-19T03:19:45.372Z,62.05
2023-04-19T03:22:12.550Z,62.67
2023-04-19T03:24:39.898Z,62.67
2023-04-19T03:27:07.964Z,63.40
2023-04-19T03:29:35.320Z,63.46
2023-04-19T03:32:02.652Z,64.28
2023-04-19T03:34:30.327Z,63.87
2023-04-19T03:36:57.496Z,63.41
2023-04-19T03:39:25.104Z,64.51
2023-04-19T03:41:53.804Z,65.79
2023-04-19T03:44:21.299Z,67.43
2023-04-19T03:46:48.989Z,67.62
2023-04-19T03:49:16.801Z,68.08
2023-04-19T03:51:44.422Z,64.48
2023-04-19T03:54:11.936Z,62.87
2023-04-19T03:56:39.354Z,64.73
2023-04-19T03:59:06.750Z,64.62
2023-04-19T04:01:34.299Z,65.39
2023-04-19T04:04:04.671Z,62.78
2023-04-19T04:06:32.246Z,64.13
2023-04-19T04:08:59.847Z,65.07
2023-04-19T04:11:27.304Z,65.59
2023-04-19T04:13:56.047Z,65.60
2023-04-19T04:16:23.865Z,64.43
2023-04-19T04:18:51.696Z,62.58
2023-04-19T04:21:19.062Z,63.70
2023-04-19T04:23:47.266Z,64.92
2023-04-19T04:26:15.211Z,63.61
2023-04-19T04:28:43.855Z,64.30
2023-04-19T04:31:12.975Z,64.03
2023-04-19T04:33:41.705Z,65.12
2023-04-19T04:36:12.082Z,65.84
2023-04-19T04:38:39.628Z,65.28
2023-04-19T04:41:07.042Z,66.12
2023-04-19T04:43:34.652Z,62.03
2023-04-19T04:46:02.151Z,61.62
2023-04-19T04:48:31.496Z,62.89
2023-04-19T04:50:58.696Z,62.22
2023-04-19T04:53:26.675Z,66.09
2023-04-19T04:55:54.307Z,68.33
2023-04-19T04:58:21.517Z,69.92
2023-04-19T05:00:49.927Z,70.51
2023-04-19T05:03:18.232Z,68.94
2023-04-19T05:05:46.083Z,67.82
2023-04-19T05:08:13.490Z,70.59
2023-04-19T05:10:41.595Z,69.79
2023-04-19T05:13:08.847Z,70.07
2023-04-19T05:15:36.087Z,67.17
2023-04-19T05:18:04.025Z,68.95
2023-04-19T05:20:31.696Z,68.68
2023-04-19T05:23:00.490Z,69.75
2023-04-19T05:25:28.068Z,67.99
2023-04-19T05:27:55.822Z,67.32
2023-04-19T05:30:23.090Z,68.66
2023-04-19T05:32:52.652Z,68.37
2023-04-19T05:35:20.229Z,65.80
2023-04-19T05:37:47.538Z,64.28
2023-04-19T05:40:15.333Z,64.08
2023-04-19T05:42:42.654Z,65.96
2023-04-19T05:45:10.669Z,63.81
2023-04-19T05:47:39.685Z,65.14
2023-04-19T05:50:08.994Z,64.90
2023-04-19T05:52:36.395Z,64.53
2023-04-19T05:55:04.700Z,62.96
2023-04-19T05:57:32.547Z,65.42
2023-04-19T06:02:40.849Z,63.54
2023-04-19T06:05:10.794Z,64.16
2023-04-19T06:07:43.190Z,65.06
2023-04-19T06:10:14.970Z,62.68
2023-04-19T06:12:42.719Z,62.14
2023-04-19T06:15:10.322Z,63.15
2023-04-19T06:17:37.947Z,62.62
2023-04-19T06:20:07.732Z,62.20
2023-04-19T06:22:35.042Z,63.21
2023-04-19T06:25:03.634Z,59.64
2023-04-19T06:27:30.824Z,60.49
2023-04-19T06:30:00.934Z,57.96
2023-04-19T06:32:28.860Z,57.38
2023-04-19T06:34:56.147Z,54.68
2023-04-19T06:37:23.436Z,53.65
2023-04-19T06:39:50.963Z,54.71
2023-04-19T06:42:20.137Z,53.62
2023-04-19T06:44:47.296Z,53.99
2023-04-19T06:47:15.164Z,53.06
2023-04-19T06:49:42.458Z,51.58
2023-04-19T06:52:10.074Z,51.15
2023-04-19T06:54:37.554Z,51.19
2023-04-19T06:57:04.731Z,49.71
2023-04-19T06:59:32.459Z,50.58
2023-04-19T07:02:00.011Z,54.03
2023-04-19T07:04:27.816Z,50.99
2023-04-19T07:06:55.154Z,52.30
2023-04-19T07:09:22.696Z,51.15
2023-04-19T07:11:51.373Z,52.47
2023-04-19T07:14:19.356Z,55.41
2023-04-19T07:16:47.375Z,55.78
2023-04-19T07:19:14.648Z,57.47
2023-04-19T07:21:41.968Z,56.69
2023-04-19T07:24:09.374Z,57.67
2023-04-19T07:26:36.683Z,57.33
2023-04-19T07:29:03.860Z,56.46
2023-04-19T07:31:31.466Z,55.90
2023-04-19T07:33:58.622Z,56.70
2023-04-19T07:36:25.794Z,57.94
2023-04-19T07:38:53.587Z,57.41
2023-04-19T07:41:21.468Z,56.17
2023-04-19T07:43:48.668Z,54.85
2023-04-19T07:46:16.433Z,52.78
2023-04-19T07:48:43.674Z,50.27
2023-04-19T07:51:17.004Z,50.58
2023-04-19T07:53:44.482Z,52.22
2023-04-19T07:56:12.912Z,47.75
2023-04-19T07:58:41.556Z,48.22
2023-04-19T08:01:09.345Z,47.23
2023-04-19T08:03:37.935Z,46.81
2023-04-19T08:06:07.190Z,43.38
2023-04-19T08:08:34.870Z,44.49
2023-04-19T08:11:02.611Z,42.11
2023-04-19T08:13:30.270Z,43.74
2023-04-19T08:18:28.336Z,38.37
2023-04-19T08:20:56.730Z,38.35
2023-04-19T08:23:29.437Z,38.82
2023-04-19T08:25:59.589Z,38.07
2023-04-19T08:28:26.850Z,38.07
2023-04-19T08:30:54.630Z,38.57
2023-04-19T08:33:22.419Z,41.55
2023-04-19T08:35:49.604Z,41.92
2023-04-19T08:38:16.825Z,45.29
2023-04-19T08:40:47.580Z,45.82
2023-04-19T08:43:15.449Z,45.55
2023-04-19T08:45:42.717Z,44.37
2023-04-19T08:48:11.938Z,48.76
2023-04-19T08:50:55.785Z,49.48
2023-04-19T08:53:29.546Z,47.54
2023-04-19T08:56:12.863Z,48.73
2023-04-19T08:59:04.084Z,50.81
2023-04-19T09:01:36.297Z,52.39
2023-04-19T09:04:20.847Z,54.78
2023-04-19T09:06:53.606Z,55.04
2023-04-19T09:09:33.974Z,56.78
2023-04-19T09:12:04.231Z,55.67
2023-04-19T09:14:31.793Z,56.68
2023-04-19T09:17:17.444Z,52.92
2023-04-19T09:19:48.899Z,53.51
2023-04-19T09:22:16.205Z,52.43
2023-04-19T09:27:16.807Z,50.48
2023-04-19T09:29:46.467Z,50.69
2023-04-19T09:32:13.945Z,49.50
2023-04-19T09:34:51.632Z,51.29
2023-04-19T09:37:32.974Z,52.13
2023-04-19T09:40:22.294Z,50.61
2023-04-19T09:48:07.874Z,52.47
2023-04-19T09:50:46.688Z,52.48
2023-04-19T09:53:22.507Z,49.07
2023-04-19T09:56:00.593Z,50.00
2023-04-19T09:58:38.278Z,51.15
2023-04-19T10:01:16.274Z,51.60
2023-04-19T10:03:48.508Z,50.23
2023-04-19T10:06:40.168Z,49.44
2023-04-19T10:09:05.052Z,48.56
2023-04-19T10:11:38.507Z,48.33
2023-04-19T10:14:10.037Z,47.99
2023-04-19T10:16:38.514Z,48.92
2023-04-19T10:19:07.696Z,52.21
2023-04-19T10:21:36.839Z,51.50
2023-04-19T10:24:04.243Z,52.60
2023-04-19T10:26:32.716Z,52.46
2023-04-19T10:28:59.882Z,51.78
2023-04-19T10:31:27.197Z,50.18
2023-04-19T10:33:54.854Z,51.29
2023-04-19T10:36:22.441Z,52.38
2023-04-19T10:38:52.014Z,51.65
2023-04-19T10:41:19.669Z,49.33
2023-04-19T10:43:56.149Z,49.51
2023-04-19T10:46:29.037Z,50.09
2023-04-19T10:49:00.703Z,51.04
2023-04-19T10:51:33.193Z,50.26
2023-04-19T10:54:01.690Z,49.10
2023-04-19T10:56:35.822Z,46.13
2023-04-19T10:59:11.768Z,48.37
2023-04-19T11:01:43.947Z,49.67
2023-04-19T11:04:12.090Z,50.68
2023-04-19T11:06:52.459Z,50.31
2023-04-19T11:09:28.819Z,51.43
2023-04-19T11:12:01.294Z,51.14
2023-04-19T11:14:30.320Z,51.44
2023-04-19T11:16:57.926Z,50.80
2023-04-19T11:19:25.225Z,49.89
2023-04-19T11:21:52.406Z,50.87
2023-04-19T11:24:20.819Z,49.05
2023-04-19T11:26:52.149Z,49.71
2023-04-19T11:29:21.962Z,49.93
2023-04-19T11:31:49.308Z,50.76
2023-04-19T11:34:16.883Z,50.99
2023-04-19T11:36:51.277Z,50.24
2023-04-19T11:39:18.721Z,52.75
2023-04-19T11:41:47.426Z,53.45
2023-04-19T11:44:15.862Z,52.42
2023-04-19T11:46:43.884Z,54.33
2023-04-19T11:49:11.481Z,56.41
2023-04-19T11:51:41.705Z,55.95
2023-04-19T11:54:16.937Z,57.18
2023-04-19T11:56:57.562Z,57.66
2023-04-19T11:59:24.752Z,56.13
2023-04-19T12:01:52.205Z,56.63
2023-04-19T12:04:21.312Z,56.58
2023-04-19T12:06:59.552Z,56.04
2023-04-19T12:09:27.225Z,56.40
2023-04-19T12:11:54.386Z,57.58
2023-04-19T12:14:23.052Z,57.47
2023-04-19T12:17:07.456Z,58.06
2023-04-19T12:19:35.541Z,58.21
2023-04-19T12:22:13.732Z,55.82
2023-04-19T12:24:41.000Z,56.04
2023-04-19T12:27:08.675Z,57.63
2023-04-19T12:29:38.347Z,55.99
2023-04-19T12:32:05.978Z,57.25
2023-04-19T12:34:33.489Z,55.14
2023-04-19T12:37:00.911Z,56.32
2023-04-19T12:39:28.955Z,55.67
2023-04-19T12:41:56.682Z,55.70
2023-04-19T12:44:23.874Z,54.63
2023-04-19T12:46:51.062Z,53.37
2023-04-19T12:49:19.937Z,53.87
2023-04-19T12:51:47.776Z,53.01
2023-04-19T12:54:15.368Z,55.11
2023-04-19T12:56:42.846Z,53.49
2023-04-19T12:59:10.028Z,52.07
2023-04-19T13:01:37.266Z,51.08
2023-04-19T13:04:04.966Z,52.87
2023-04-19T13:06:32.351Z,51.89
2023-04-19T13:09:01.205Z,52.04
2023-04-19T13:11:29.304Z,50.12
2023-04-19T13:13:56.475Z,49.74
2023-04-19T13:16:23.808Z,52.44
2023-04-19T13:18:52.633Z,57.58
2023-04-19T13:21:20.247Z,58.48
2023-04-19T13:23:47.581Z,59.94
2023-04-19T13:26:15.798Z,59.15
2023-04-19T13:28:43.043Z,60.18
2023-04-19T13:31:10.304Z,61.12
2023-04-19T13:33:37.783Z,60.99
2023-04-19T13:36:05.253Z,59.94
2023-04-19T13:38:32.652Z,59.29
2023-04-19T13:41:00.068Z,58.45
2023-04-19T13:43:27.322Z,58.52
2023-04-19T13:45:54.616Z,58.85
2023-04-19T13:48:22.079Z,59.55
2023-04-19T13:50:51.034Z,62.09
2023-04-19T13:53:21.029Z,60.55
2023-04-19T13:55:48.472Z,59.02
2023-04-19T13:58:15.646Z,58.94
2023-04-19T14:00:42.972Z,60.42
2023-04-19T14:03:10.900Z,60.50
2023-04-19T14:05:38.191Z,58.04
2023-04-19T14:08:05.666Z,58.72
2023-04-19T14:10:33.078Z,58.27
2023-04-19T14:13:00.234Z,59.34
2023-04-19T14:15:27.502Z,56.42
2023-04-19T14:17:55.075Z,57.86
2023-04-19T14:20:22.359Z,58.02
2023-04-19T14:22:49.565Z,56.09
2023-04-19T14:25:18.216Z,56.67
2023-04-19T14:27:45.495Z,56.81
2023-04-19T14:30:12.866Z,58.35
2023-04-19T14:32:40.473Z,57.67
2023-04-19T14:35:08.659Z,57.32
2023-04-19T14:37:36.013Z,56.90
2023-04-19T14:40:03.696Z,56.57
2023-04-19T14:42:31.260Z,56.11
2023-04-19T14:44:58.488Z,57.60
2023-04-19T14:47:26.024Z,57.23
2023-04-19T14:49:53.324Z,57.47
2023-04-19T14:52:21.324Z,56.44
2023-04-19T14:54:48.928Z,56.24
2023-04-19T14:57:16.385Z,56.91
2023-04-19T14:59:43.575Z,57.96
2023-04-19T15:02:13.419Z,56.50
2023-04-19T15:04:41.709Z,56.17
2023-04-19T15:07:09.497Z,57.05
2023-04-19T15:09:37.023Z,57.28
2023-04-19T15:12:04.251Z,56.61
2023-04-19T15:14:31.657Z,56.92
2023-04-19T15:16:59.127Z,56.86
2023-04-19T15:19:26.513Z,54.95
2023-04-19T15:21:53.688Z,55.92
2023-04-19T15:24:21.140Z,55.54
2023-04-19T15:26:48.566Z,55.20
2023-04-19T15:29:16.469Z,54.01
2023-04-19T15:31:44.190Z,53.40
2023-04-19T15:34:11.472Z,53.94
2023-04-19T15:36:40.385Z,54.12
2023-04-19T15:39:08.091Z,53.65
2023-04-19T15:41:36.256Z,53.83
2023-04-19T15:44:03.443Z,52.50
2023-04-19T15:46:31.035Z,53.92
2023-04-19T15:48:58.261Z,52.61
2023-04-19T15:51:25.414Z,53.56
2023-04-19T15:53:52.911Z,51.36
2023-04-19T15:56:20.118Z,51.64
2023-04-19T15:58:47.251Z,51.89
2023-04-19T16:01:16.305Z,51.04
2023-04-19T16:03:45.518Z,52.65
2023-04-19T16:06:13.748Z,51.09
2023-04-19T16:08:40.969Z,51.85
2023-04-19T16:11:08.566Z,52.75
2023-04-19T16:13:35.734Z,52.67
2023-04-19T16:16:02.935Z,53.34
2023-04-19T16:18:30.671Z,51.51
2023-04-19T16:20:57.816Z,53.87
2023-04-19T16:23:25.243Z,52.97
2023-04-19T16:25:53.803Z,52.97
2023-04-19T16:28:22.630Z,51.86
2023-04-19T16:30:49.906Z,52.84
2023-04-19T16:33:17.420Z,51.55
2023-04-19T16:35:44.812Z,51.92
2023-04-19T16:38:11.997Z,53.09
2023-04-19T16:40:39.562Z,51.96
2023-04-19T16:43:06.790Z,55.01
2023-04-19T16:45:34.172Z,54.25
2023-04-19T16:48:02.339Z,53.19
2023-04-19T16:50:29.608Z,53.63
2023-04-19T16:52:57.007Z,53.93
2023-04-19T16:55:24.476Z,54.43
2023-04-19T16:57:53.711Z,53.82
2023-04-19T17:00:22.348Z,54.97
2023-04-19T17:02:50.766Z,54.76
2023-04-19T17:05:18.114Z,55.78
2023-04-19T17:07:45.477Z,56.67
2023-04-19T17:10:13.245Z,57.46
2023-04-19T17:12:41.285Z,59.21
2023-04-19T17:15:08.825Z,59.28
2023-04-19T17:17:36.886Z,60.11
2023-04-19T17:20:06.268Z,60.52
2023-04-19T17:22:33.515Z,61.06
2023-04-19T17:25:02.385Z,62.18
2023-04-19T17:27:30.135Z,62.31
2023-04-19T17:29:57.414Z,62.02
2023-04-19T17:32:25.644Z,63.28
2023-04-19T17:34:55.602Z,63.06
2023-04-19T17:37:23.044Z,63.50
2023-04-19T17:39:51.279Z,62.79
2023-04-19T17:42:20.130Z,63.08
2023-04-19T17:44:48.816Z,63.86
2023-04-19T17:47:17.150Z,64.03
2023-04-19T17:49:45.350Z,64.00
2023-04-19T17:52:13.702Z,64.06
2023-04-19T17:54:41.682Z,65.48
2023-04-19T17:57:09.657Z,67.51
2023-04-19T17:59:37.593Z,68.83
2023-04-19T18:02:06.120Z,67.36
2023-04-19T18:04:37.745Z,67.20
2023-04-19T18:07:06.453Z,64.78
2023-04-19T18:09:34.118Z,64.61
2023-04-19T18:12:03.172Z,64.54
2023-04-19T18:14:31.340Z,67.80
2023-04-19T18:16:59.346Z,67.16
2023-04-19T18:19:28.228Z,65.87
2023-04-19T18:21:56.421Z,66.55
2023-04-19T18:24:24.624Z,66.08
2023-04-19T18:26:52.550Z,66.62
2023-04-19T18:29:21.387Z,68.78
2023-04-19T18:31:49.197Z,68.65
2023-04-19T18:34:17.940Z,69.50
2023-04-19T18:36:45.760Z,67.63
2023-04-19T18:39:14.551Z,68.27
2023-04-19T18:41:42.994Z,66.67
2023-04-19T18:46:43.249Z,68.41
2023-04-19T18:49:12.741Z,70.48
2023-04-19T18:51:40.756Z,70.63
2023-04-19T18:54:09.619Z,67.50
2023-04-19T18:59:10.489Z,68.88
2023-04-19T19:01:42.348Z,67.13
2023-04-19T19:06:42.275Z,67.45
2023-04-19T19:09:12.321Z,71.28
2023-04-19T19:11:56.193Z,70.80
2023-04-19T19:14:27.464Z,72.26
2023-04-19T19:16:55.353Z,70.32
2023-04-19T19:19:23.571Z,71.43
2023-04-19T19:21:54.914Z,69.25
2023-04-19T19:24:23.969Z,72.29
2023-04-19T19:26:54.906Z,71.15
2023-04-19T19:29:23.183Z,69.16
2023-04-19T19:31:51.575Z,69.82
2023-04-19T19:34:28.905Z,69.88
2023-04-19T19:36:58.553Z,68.96
2023-04-19T19:39:28.607Z,71.65
2023-04-19T19:42:05.758Z,71.85
2023-04-19T19:44:35.415Z,72.52
2023-04-19T19:47:09.339Z,72.35
2023-04-19T19:52:28.686Z,74.48
2023-04-19T19:54:59.052Z,77.03
2023-04-19T20:00:18.253Z,72.75
2023-04-19T20:05:19.194Z,74.59
2023-04-19T20:10:21.727Z,73.24
2023-04-19T20:12:50.375Z,71.54
2023-04-19T20:15:18.595Z,70.72
2023-04-19T20:17:47.542Z,75.96
2023-04-19T20:20:15.799Z,73.04
2023-04-19T20:22:45.109Z,74.35
2023-04-19T20:25:14.082Z,76.76
2023-04-19T20:27:43.359Z,75.19
2023-04-19T20:30:11.455Z,71.48
2023-04-19T20:32:42.933Z,71.29
2023-04-19T20:35:12.673Z,71.93
2023-04-19T20:37:42.191Z,72.01
2023-04-19T20:40:12.669Z,72.99
2023-04-19T20:42:41.911Z,73.23
2023-04-19T20:45:13.244Z,74.48
2023-04-19T20:47:41.635Z,72.43
2023-04-19T20:50:10.912Z,73.02
2023-04-19T20:52:38.457Z,73.19
2023-04-19T20:55:07.714Z,73.85
2023-04-19T20:57:35.043Z,75.76
2023-04-19T21:00:02.244Z,75.05
2023-04-19T21:02:31.579Z,74.20
2023-04-19T21:04:58.884Z,74.38
2023-04-19T21:07:26.036Z,74.74
2023-04-19T21:09:53.454Z,75.43
2023-04-19T21:12:21.192Z,75.09
2023-04-19T21:14:49.900Z,75.23
2023-04-19T21:17:17.350Z,74.42
2023-04-19T21:19:44.578Z,72.44
2023-04-19T21:22:11.814Z,72.01
2023-04-19T21:24:39.295Z,72.09
2023-04-19T21:27:06.455Z,74.95
2023-04-19T21:29:33.727Z,73.99
2023-04-19T21:32:01.400Z,76.08
2023-04-19T21:34:28.640Z,72.00
2023-04-19T21:36:55.983Z,71.33
2023-04-19T21:39:23.545Z,72.04
2023-04-19T21:41:50.856Z,71.78
2023-04-19T21:44:18.023Z,73.21
2023-04-19T21:46:46.251Z,73.64
2023-04-19T21:49:13.495Z,72.27
2023-04-19T21:51:41.143Z,71.08
2023-04-19T21:54:08.668Z,70.87
2023-04-19T21:56:37.143Z,71.58
2023-04-19T21:59:04.302Z,78.27
2023-04-19T22:01:31.744Z,80.06
2023-04-19T22:03:59.742Z,77.49
2023-04-19T22:06:27.805Z,80.81
2023-04-19T22:08:55.046Z,83.33
2023-04-19T22:11:22.524Z,80.93
2023-04-19T22:13:50.250Z,76.78
2023-04-19T22:16:17.593Z,82.05
2023-04-19T22:18:45.041Z,83.78
2023-04-19T22:21:12.228Z,81.39
2023-04-19T22:23:39.370Z,82.77
2023-04-19T22:26:06.833Z,83.23
2023-04-19T22:28:36.003Z,82.32
2023-04-19T22:31:03.552Z,84.67
2023-04-19T22:33:31.135Z,85.55
2023-04-19T22:35:58.296Z,85.99
2023-04-19T22:38:25.597Z,82.40
2023-04-19T22:40:53.396Z,81.00
2023-04-19T22:43:20.852Z,77.76
2023-04-19T22:45:48.290Z,76.72
2023-04-19T22:48:15.956Z,79.35
2023-04-19T22:50:43.659Z,76.89
2023-04-19T22:53:12.652Z,74.44
2023-04-19T22:55:40.143Z,74.55
2023-04-19T22:58:07.685Z,74.85
2023-04-19T23:00:35.418Z,80.88
2023-04-19T23:03:02.974Z,81.22
2023-04-19T23:05:31.042Z,80.24
2023-04-19T23:08:04.661Z,83.84
2023-04-19T23:10:37.992Z,85.46
2023-04-19T23:13:05.941Z,84.16
2023-04-19T23:15:33.576Z,80.10
2023-04-19T23:18:02.433Z,80.27
2023-04-19T23:20:30.704Z,83.48
2023-04-19T23:22:58.141Z,80.34
2023-04-19T23:25:25.668Z,78.69
2023-04-19T23:27:52.876Z,79.76
2023-04-19T23:30:20.728Z,81.82
2023-04-19T23:32:47.913Z,82.43
2023-04-19T23:35:15.092Z,80.43
2023-04-19T23:37:44.049Z,80.71
2023-04-19T23:40:11.276Z,83.57
2023-04-19T23:42:38.548Z,85.14
2023-04-19T23:45:06.514Z,85.75
2023-04-19T23:47:34.270Z,86.76
2023-04-19T23:50:01.564Z,85.54
2023-04-19T23:52:29.014Z,83.24
2023-04-19T23:54:56.151Z,85.47
2023-04-19T23:57:23.327Z,86.17
2023-04-19T23:59:50.829Z,84.96
